createdAt,value
2018-09-18T00:01:28.231Z,98888.08
2018-09-18T00:03:56.719Z,98889.63
2018-09-18T00:06:25.020Z,98886.08
2018-09-18T00:08:53.315Z,98877.08
2018-09-18T00:11:21.657Z,98879.66
2018-09-18T00:13:49.998Z,98875.56
2018-09-18T00:16:18.279Z,98873.75
2018-09-18T00:18:46.593Z,98872.22
2018-09-18T00:21:14.989Z,98871.22
2018-09-18T00:23:43.299Z,98868.70
2018-09-18T00:26:11.590Z,98858.24
2018-09-18T00:28:39.912Z,98860.34
2018-09-18T00:31:08.270Z,98864.46
2018-09-18T00:33:36.560Z,98859.41
2018-09-18T00:36:04.885Z,98857.45
2018-09-18T00:38:33.222Z,98856.28
2018-09-18T00:41:01.568Z,98854.08
2018-09-18T00:43:29.855Z,98854.70
2018-09-18T00:45:58.167Z,98841.84
2018-09-18T00:48:26.508Z,98839.88
2018-09-18T00:50:54.814Z,98847.19
2018-09-18T00:53:23.099Z,98839.39
2018-09-18T00:55:51.570Z,98838.19
2018-09-18T00:58:19.894Z,98838.33
2018-09-18T01:00:48.201Z,98841.42
2018-09-18T01:03:16.510Z,98837.07
2018-09-18T01:05:44.842Z,98842.83
2018-09-18T01:08:13.118Z,98838.19
2018-09-18T01:10:41.480Z,98826.39
2018-09-18T01:13:09.771Z,98833.77
2018-09-18T01:15:38.110Z,98832.30
2018-09-18T01:18:06.551Z,98835.22
2018-09-18T01:20:34.850Z,98826.97
2018-09-18T01:23:03.169Z,98835.71
2018-09-18T01:25:31.480Z,98838.19
2018-09-18T01:27:59.774Z,98841.14
2018-09-18T01:30:28.082Z,98839.33
2018-09-18T01:32:56.386Z,98843.22
2018-09-18T01:35:24.726Z,98845.80
2018-09-18T01:37:53.047Z,98844.67
2018-09-18T01:40:21.538Z,98838.53
2018-09-18T01:42:49.845Z,98846.47
2018-09-18T01:45:18.274Z,98848.81
2018-09-18T01:47:46.640Z,98845.20
2018-09-18T01:50:14.969Z,98844.38
2018-09-18T01:52:43.336Z,98843.97
2018-09-18T01:55:11.659Z,98843.30
2018-09-18T01:57:39.975Z,98846.39
2018-09-18T02:00:08.430Z,98839.45
2018-09-18T02:02:36.795Z,98839.17
2018-09-18T02:05:05.092Z,98835.59
2018-09-18T02:07:34.279Z,98838.83
2018-09-18T02:10:02.584Z,98838.39
2018-09-18T02:12:30.954Z,98829.22
2018-09-18T02:14:59.245Z,98833.09
2018-09-18T02:17:27.608Z,98835.14
2018-09-18T02:19:55.906Z,98833.71
2018-09-18T02:22:24.229Z,98833.14
2018-09-18T02:24:52.525Z,98821.22
2018-09-18T02:27:20.836Z,98833.13
2018-09-18T02:29:49.118Z,98832.91
2018-09-18T02:32:17.499Z,98829.19
2018-09-18T02:34:45.906Z,98830.45
2018-09-18T02:37:14.260Z,98823.98
2018-09-18T02:39:42.543Z,98817.91
2018-09-18T02:42:11.085Z,98827.06
2018-09-18T02:44:39.475Z,98821.38
2018-09-18T02:47:07.752Z,98820.51
2018-09-18T02:49:36.106Z,98814.89
2018-09-18T02:52:04.406Z,98818.41
2018-09-18T02:54:32.731Z,98824.04
2018-09-18T02:57:00.996Z,98814.50
2018-09-18T02:59:29.343Z,98813.38
2018-09-18T03:01:57.639Z,98814.70
2018-09-18T03:04:25.995Z,98809.38
2018-09-18T03:06:54.366Z,98810.08
2018-09-18T03:09:22.689Z,98807.05
2018-09-18T03:11:50.980Z,98807.06
2018-09-18T03:14:19.287Z,98817.42
2018-09-18T03:16:47.620Z,98804.78
2018-09-18T03:19:15.962Z,98809.70
2018-09-18T03:21:44.268Z,98807.91
2018-09-18T03:24:12.582Z,98804.77
2018-09-18T03:26:40.858Z,98810.69
2018-09-18T03:29:09.203Z,98804.33
2018-09-18T03:31:37.546Z,98805.80
2018-09-18T03:34:05.867Z,98800.95
2018-09-18T03:36:34.183Z,98795.00
2018-09-18T03:39:02.495Z,98795.49
2018-09-18T03:41:30.778Z,98789.66
2018-09-18T03:43:59.109Z,98784.75
2018-09-18T03:46:27.391Z,98792.77
2018-09-18T03:48:55.714Z,98792.41
2018-09-18T03:51:24.028Z,98782.23
2018-09-18T03:53:52.314Z,98788.36
2018-09-18T03:56:20.657Z,98786.95
2018-09-18T03:58:50.632Z,98787.55
2018-09-18T04:01:19.121Z,98789.12
2018-09-18T04:03:47.754Z,98787.53
2018-09-18T04:06:16.494Z,98783.16
2018-09-18T04:08:44.859Z,98781.10
2018-09-18T04:11:13.226Z,98786.72
2018-09-18T04:13:41.578Z,98782.78
2018-09-18T04:16:09.864Z,98778.86
2018-09-18T04:18:38.203Z,98775.45
2018-09-18T04:21:06.666Z,98775.98
2018-09-18T04:23:35.084Z,98777.94
2018-09-18T04:26:03.452Z,98781.71
2018-09-18T04:28:31.768Z,98777.61
2018-09-18T04:31:00.114Z,98781.87
2018-09-18T04:33:28.498Z,98777.31
2018-09-18T04:35:56.802Z,98774.03
2018-09-18T04:38:25.142Z,98781.34
2018-09-18T04:40:53.530Z,98773.97
2018-09-18T04:43:21.942Z,98772.56
2018-09-18T04:45:50.368Z,98778.25
2018-09-18T04:48:18.589Z,98777.49
2018-09-18T04:50:47.042Z,98774.46
2018-09-18T04:53:15.322Z,98775.61
2018-09-18T04:55:43.657Z,98778.68
2018-09-18T04:58:11.949Z,98787.16
2018-09-18T05:00:40.327Z,98784.16
2018-09-18T05:03:08.617Z,98783.16
2018-09-18T05:05:36.939Z,98780.50
2018-09-18T05:08:05.357Z,98786.20
2018-09-18T05:10:33.662Z,98791.77
2018-09-18T05:13:01.972Z,98791.28
2018-09-18T05:15:30.323Z,98787.27
2018-09-18T05:17:58.693Z,98793.12
2018-09-18T05:20:27.250Z,98791.23
2018-09-18T05:22:55.535Z,98785.02
2018-09-18T05:25:24.639Z,98787.88
2018-09-18T05:27:53.039Z,98782.32
2018-09-18T05:30:21.454Z,98782.20
2018-09-18T05:32:50.352Z,98781.11
2018-09-18T05:35:18.824Z,98777.40
2018-09-18T05:37:47.386Z,98774.58
2018-09-18T05:40:16.417Z,98778.08
2018-09-18T05:42:45.058Z,98776.34
2018-09-18T05:45:13.485Z,98774.52
2018-09-18T05:47:41.884Z,98772.84
2018-09-18T05:50:10.312Z,98774.56
2018-09-18T05:52:38.577Z,98770.17
2018-09-18T05:55:06.908Z,98772.56
2018-09-18T05:57:37.213Z,98771.84
2018-09-18T06:00:06.149Z,98774.72
2018-09-18T06:02:41.585Z,98770.55
2018-09-18T06:05:10.229Z,98769.44
2018-09-18T06:07:38.740Z,98766.20
2018-09-18T06:10:07.380Z,98768.00
2018-09-18T06:12:35.715Z,98773.12
2018-09-18T06:15:04.086Z,98763.80
2018-09-18T06:17:32.638Z,98764.39
2018-09-18T06:20:01.018Z,98771.63
2018-09-18T06:22:30.492Z,98764.11
2018-09-18T06:25:00.036Z,98768.20
2018-09-18T06:27:28.410Z,98763.73
2018-09-18T06:29:56.750Z,98760.91
2018-09-18T06:32:25.102Z,98766.11
2018-09-18T06:34:53.847Z,98767.48
2018-09-18T06:37:23.203Z,98763.26
2018-09-18T06:39:51.510Z,98769.66
2018-09-18T06:42:19.879Z,98761.80
2018-09-18T06:44:48.338Z,98762.20
2018-09-18T06:47:17.101Z,98760.97
2018-09-18T06:49:45.669Z,98759.97
2018-09-18T06:52:13.999Z,98756.27
2018-09-18T06:54:42.278Z,98755.94
2018-09-18T06:57:10.601Z,98753.09
2018-09-18T06:59:38.908Z,98751.81
2018-09-18T07:02:07.293Z,98748.17
2018-09-18T07:04:35.659Z,98758.69
2018-09-18T07:07:03.983Z,98757.47
2018-09-18T07:09:32.305Z,98752.02
2018-09-18T07:12:00.649Z,98750.23
2018-09-18T07:14:28.968Z,98746.28
2018-09-18T07:16:57.307Z,98746.65
2018-09-18T07:19:25.626Z,98747.50
2018-09-18T07:21:53.959Z,98745.84
2018-09-18T07:24:22.254Z,98740.24
2018-09-18T07:26:50.639Z,98743.67
2018-09-18T07:29:19.070Z,98746.67
2018-09-18T07:31:47.391Z,98737.48
2018-09-18T07:34:15.696Z,98739.51
2018-09-18T07:36:44.025Z,98740.73
2018-09-18T07:39:12.887Z,98736.13
2018-09-18T07:41:41.248Z,98730.53
2018-09-18T07:44:09.816Z,98735.11
2018-09-18T07:46:38.155Z,98734.69
2018-09-18T07:49:06.683Z,98737.65
2018-09-18T07:51:35.745Z,98736.07
2018-09-18T07:54:04.143Z,98738.92
2018-09-18T07:56:32.957Z,98734.06
2018-09-18T07:59:02.041Z,98734.41
2018-09-18T08:01:30.973Z,98737.16
2018-09-18T08:03:59.398Z,98733.28
2018-09-18T08:06:27.759Z,98729.36
2018-09-18T08:08:56.074Z,98734.80
2018-09-18T08:11:24.447Z,98727.98
2018-09-18T08:13:52.735Z,98725.86
2018-09-18T08:16:21.239Z,98722.84
2018-09-18T08:18:49.522Z,98716.25
2018-09-18T08:21:17.844Z,98714.98
2018-09-18T08:23:46.202Z,98718.56
2018-09-18T08:26:14.539Z,98717.37
2018-09-18T08:28:42.938Z,98718.83
2018-09-18T08:31:11.271Z,98715.24
2018-09-18T08:33:39.651Z,98719.38
2018-09-18T08:36:07.931Z,98714.19
2018-09-18T08:38:36.251Z,98716.47
2018-09-18T08:41:04.745Z,98714.59
2018-09-18T08:43:33.193Z,98720.02
2018-09-18T08:46:01.608Z,98721.44
2018-09-18T08:48:31.320Z,98718.06
2018-09-18T08:51:00.865Z,98706.06
2018-09-18T08:53:29.681Z,98711.75
2018-09-18T08:55:58.076Z,98698.96
2018-09-18T08:58:26.607Z,98703.01
2018-09-18T09:00:54.933Z,98693.30
2018-09-18T09:03:23.378Z,98695.69
2018-09-18T09:05:51.671Z,98696.41
2018-09-18T09:08:20.086Z,98696.52
2018-09-18T09:10:48.416Z,98699.45
2018-09-18T09:13:16.743Z,98693.70
2018-09-18T09:15:45.067Z,98696.22
2018-09-18T09:18:13.539Z,98696.30
2018-09-18T09:20:41.777Z,98691.72
2018-09-18T09:23:10.077Z,98696.70
2018-09-18T09:25:38.413Z,98692.78
2018-09-18T09:28:07.032Z,98696.58
2018-09-18T09:30:35.385Z,98696.37
2018-09-18T09:33:03.735Z,98691.03
2018-09-18T09:35:32.085Z,98691.12
2018-09-18T09:38:00.439Z,98684.75
2018-09-18T09:40:28.747Z,98682.66
2018-09-18T09:42:57.102Z,98677.06
2018-09-18T09:45:25.408Z,98682.05
2018-09-18T09:47:53.852Z,98672.14
2018-09-18T09:50:22.159Z,98669.20
2018-09-18T09:52:50.472Z,98667.55
2018-09-18T09:55:18.915Z,98667.55
2018-09-18T09:57:47.224Z,98664.12
2018-09-18T10:00:20.888Z,98663.74
2018-09-18T10:02:49.508Z,98661.56
2018-09-18T10:05:18.808Z,98659.90
2018-09-18T10:07:47.427Z,98664.59
2018-09-18T10:10:15.746Z,98666.19
2018-09-18T10:12:44.134Z,98653.39
2018-09-18T10:15:12.472Z,98653.34
2018-09-18T10:17:41.003Z,98650.66
2018-09-18T10:20:09.483Z,98656.58
2018-09-18T10:22:37.856Z,98647.03
2018-09-18T10:25:06.356Z,98654.16
2018-09-18T10:27:34.712Z,98646.02
2018-09-18T10:30:03.075Z,98644.66
2018-09-18T10:32:31.409Z,98633.52
2018-09-18T10:34:59.778Z,98635.64
2018-09-18T10:37:28.065Z,98638.91
2018-09-18T10:39:56.600Z,98633.78
2018-09-18T10:42:25.041Z,98634.99
2018-09-18T10:44:53.406Z,98633.61
2018-09-18T10:47:21.733Z,98625.95
2018-09-18T10:49:50.059Z,98620.48
2018-09-18T10:52:18.382Z,98630.84
2018-09-18T10:54:46.718Z,98624.81
2018-09-18T10:57:15.120Z,98620.22
2018-09-18T10:59:43.594Z,98623.06
2018-09-18T11:02:12.046Z,98617.42
2018-09-18T11:04:40.253Z,98625.23
2018-09-18T11:07:08.695Z,98614.98
2018-09-18T11:09:37.068Z,98615.16
2018-09-18T11:12:05.380Z,98615.27
2018-09-18T11:14:33.804Z,98609.63
2018-09-18T11:17:02.117Z,98603.12
2018-09-18T11:19:30.410Z,98605.29
2018-09-18T11:21:58.808Z,98605.70
2018-09-18T11:24:27.129Z,98606.23
2018-09-18T11:26:55.432Z,98605.20
2018-09-18T11:29:23.772Z,98588.06
2018-09-18T11:31:52.144Z,98596.13
2018-09-18T11:34:20.463Z,98590.46
2018-09-18T11:36:48.758Z,98592.41
2018-09-18T11:39:17.238Z,98586.36
2018-09-18T11:41:45.513Z,98574.09
2018-09-18T11:44:13.806Z,98581.39
2018-09-18T11:46:42.210Z,98585.03
2018-09-18T11:49:10.458Z,98582.67
2018-09-18T11:51:38.788Z,98569.84
2018-09-18T11:54:07.295Z,98577.98
2018-09-18T11:56:35.685Z,98575.52
2018-09-18T11:59:04.009Z,98571.69
2018-09-18T12:01:32.301Z,98575.22
2018-09-18T12:04:00.851Z,98571.55
2018-09-18T12:06:29.155Z,98564.05
2018-09-18T12:08:57.473Z,98564.45
2018-09-18T12:11:25.807Z,98566.80
2018-09-18T12:13:54.250Z,98562.23
2018-09-18T12:16:22.530Z,98565.08
2018-09-18T12:18:50.835Z,98557.56
2018-09-18T12:21:19.159Z,98558.02
2018-09-18T12:23:47.518Z,98552.19
2018-09-18T12:26:15.909Z,98547.53
2018-09-18T12:28:44.269Z,98544.48
2018-09-18T12:31:12.638Z,98543.36
2018-09-18T12:33:40.988Z,98533.88
2018-09-18T12:36:09.715Z,98537.72
2018-09-18T12:38:38.037Z,98540.09
2018-09-18T12:41:06.479Z,98542.90
2018-09-18T12:43:35.004Z,98540.02
2018-09-18T12:46:03.360Z,98538.95
2018-09-18T12:48:32.038Z,98527.67
2018-09-18T12:51:00.472Z,98537.47
2018-09-18T12:53:28.707Z,98539.78
2018-09-18T12:55:57.025Z,98529.70
2018-09-18T12:58:25.347Z,98521.21
2018-09-18T13:00:53.648Z,98512.39
2018-09-18T13:03:21.955Z,98513.88
2018-09-18T13:05:50.466Z,98514.48
2018-09-18T13:08:19.292Z,98509.70
2018-09-18T13:10:47.778Z,98507.56
2018-09-18T13:13:16.836Z,98510.08
2018-09-18T13:15:45.162Z,98501.05
2018-09-18T13:18:13.722Z,98501.26
2018-09-18T13:20:42.215Z,98501.93
2018-09-18T13:23:10.623Z,98502.09
2018-09-18T13:25:39.542Z,98489.91
2018-09-18T13:28:08.197Z,98501.80
2018-09-18T13:30:36.566Z,98485.03
2018-09-18T13:33:04.976Z,98483.78
2018-09-18T13:35:33.298Z,98489.23
2018-09-18T13:38:02.155Z,98489.84
2018-09-18T13:40:30.937Z,98486.45
2018-09-18T13:42:59.416Z,98486.55
2018-09-18T13:45:27.872Z,98484.59
2018-09-18T13:47:56.331Z,98486.45
2018-09-18T13:50:25.026Z,98483.89
2018-09-18T13:52:53.350Z,98471.16
2018-09-18T13:55:21.957Z,98471.70
2018-09-18T13:57:50.389Z,98472.98
2018-09-18T14:00:19.015Z,98469.20
2018-09-18T14:02:47.406Z,98469.05
2018-09-18T14:05:15.748Z,98474.13
2018-09-18T14:07:45.178Z,98468.38
2018-09-18T14:10:15.264Z,98461.06
2018-09-18T14:12:44.038Z,98469.95
2018-09-18T14:15:12.659Z,98475.43
2018-09-18T14:17:40.879Z,98472.88
2018-09-18T14:20:09.756Z,98468.66
2018-09-18T14:22:38.310Z,98463.11
2018-09-18T14:25:06.648Z,98469.79
2018-09-18T14:27:35.083Z,98455.80
2018-09-18T14:30:03.996Z,98462.70
2018-09-18T14:32:32.728Z,98460.27
2018-09-18T14:35:01.606Z,98462.34
2018-09-18T14:37:30.095Z,98462.22
2018-09-18T14:39:58.448Z,98466.52
2018-09-18T14:42:26.819Z,98460.56
2018-09-18T14:44:55.102Z,98456.52
2018-09-18T14:47:23.432Z,98457.33
2018-09-18T14:49:51.807Z,98449.82
2018-09-18T14:52:20.142Z,98452.61
2018-09-18T14:54:48.794Z,98454.30
2018-09-18T14:57:17.178Z,98448.32
2018-09-18T14:59:46.264Z,98449.43
2018-09-18T15:02:14.565Z,98451.21
2018-09-18T15:04:42.874Z,98451.05
2018-09-18T15:07:11.260Z,98460.65
2018-09-18T15:09:39.554Z,98465.50
2018-09-18T15:12:07.859Z,98457.00
2018-09-18T15:14:36.245Z,98454.80
2018-09-18T15:17:04.555Z,98456.89
2018-09-18T15:19:32.831Z,98461.42
2018-09-18T15:22:01.157Z,98465.47
2018-09-18T15:24:29.454Z,98464.84
2018-09-18T15:26:57.817Z,98461.17
2018-09-18T15:29:26.154Z,98456.44
2018-09-18T15:31:54.541Z,98454.88
2018-09-18T15:34:22.833Z,98456.75
2018-09-18T15:36:51.147Z,98464.25
2018-09-18T15:39:19.583Z,98463.97
2018-09-18T15:41:47.920Z,98466.63
2018-09-18T15:44:16.305Z,98463.52
2018-09-18T15:46:44.658Z,98462.95
2018-09-18T15:49:12.967Z,98464.23
2018-09-18T15:51:41.371Z,98463.86
2018-09-18T15:54:09.732Z,98460.41
2018-09-18T15:56:38.099Z,98460.84
2018-09-18T15:59:06.529Z,98460.47
2018-09-18T16:01:34.836Z,98460.55
2018-09-18T16:04:03.119Z,98451.45
2018-09-18T16:06:31.445Z,98455.81
2018-09-18T16:09:00.151Z,98450.12
2018-09-18T16:11:28.489Z,98455.32
2018-09-18T16:13:56.896Z,98450.19
2018-09-18T16:16:25.271Z,98448.02
2018-09-18T16:18:53.846Z,98455.35
2018-09-18T16:21:22.922Z,98449.30
2018-09-18T16:23:51.352Z,98453.18
2018-09-18T16:26:19.773Z,98459.09
2018-09-18T16:28:48.151Z,98457.95
2018-09-18T16:31:16.540Z,98456.05
2018-09-18T16:33:44.883Z,98463.97
2018-09-18T16:36:13.515Z,98461.30
2018-09-18T16:38:41.925Z,98458.38
2018-09-18T16:41:10.216Z,98463.81
2018-09-18T16:43:38.629Z,98464.70
2018-09-18T16:46:07.053Z,98469.55
2018-09-18T16:48:35.457Z,98468.05
2018-09-18T16:51:03.846Z,98474.16
2018-09-18T16:53:32.152Z,98473.52
2018-09-18T16:56:00.495Z,98476.16
2018-09-18T16:58:28.846Z,98479.28
2018-09-18T17:00:57.613Z,98477.16
2018-09-18T17:03:26.014Z,98469.75
2018-09-18T17:05:54.374Z,98481.91
2018-09-18T17:08:22.671Z,98482.94
2018-09-18T17:10:51.115Z,98482.70
2018-09-18T17:13:19.520Z,98476.22
2018-09-18T17:15:47.917Z,98480.38
2018-09-18T17:18:16.245Z,98478.53
2018-09-18T17:20:44.589Z,98485.81
2018-09-18T17:23:13.621Z,98489.47
2018-09-18T17:25:41.932Z,98489.00
2018-09-18T17:28:10.366Z,98496.92
2018-09-18T17:30:38.657Z,98493.72
2018-09-18T17:33:06.997Z,98502.52
2018-09-18T17:35:35.361Z,98506.67
2018-09-18T17:38:03.628Z,98512.25
2018-09-18T17:40:31.942Z,98515.05
2018-09-18T17:43:00.247Z,98511.39
2018-09-18T17:45:28.572Z,98517.73
2018-09-18T17:47:56.954Z,98518.76
2018-09-18T17:50:25.369Z,98523.90
2018-09-18T17:52:53.637Z,98521.41
2018-09-18T17:55:22.069Z,98528.20
2018-09-18T17:57:50.404Z,98533.19
2018-09-18T18:00:18.819Z,98536.14
2018-09-18T18:02:47.169Z,98540.67
2018-09-18T18:05:15.515Z,98536.75
2018-09-18T18:07:43.789Z,98537.20
2018-09-18T18:10:12.141Z,98547.24
2018-09-18T18:12:40.532Z,98540.83
2018-09-18T18:15:08.867Z,98546.70
2018-09-18T18:17:37.487Z,98542.84
2018-09-18T18:20:06.022Z,98548.80
2018-09-18T18:22:34.310Z,98548.97
2018-09-18T18:25:02.844Z,98555.20
2018-09-18T18:27:31.197Z,98561.86
2018-09-18T18:29:59.651Z,98564.09
2018-09-18T18:32:27.985Z,98565.37
2018-09-18T18:34:56.362Z,98564.84
2018-09-18T18:37:24.811Z,98565.98
2018-09-18T18:39:53.334Z,98570.92
2018-09-18T18:42:22.897Z,98568.52
2018-09-18T18:44:51.431Z,98567.50
2018-09-18T18:47:20.711Z,98578.92
2018-09-18T18:49:49.241Z,98575.92
2018-09-18T18:52:17.658Z,98577.49
2018-09-18T18:54:46.070Z,98582.58
2018-09-18T18:57:14.489Z,98583.44
2018-09-18T18:59:45.835Z,98592.75
2018-09-18T19:02:15.403Z,98592.13
2018-09-18T19:04:44.316Z,98586.89
2018-09-18T19:07:15.009Z,98594.30
2018-09-18T19:09:44.648Z,98600.68
2018-09-18T19:12:13.457Z,98599.73
2018-09-18T19:14:42.554Z,98610.17
2018-09-18T19:17:11.929Z,98606.52
2018-09-18T19:19:40.903Z,98611.64
2018-09-18T19:22:09.559Z,98612.26
2018-09-18T19:24:37.991Z,98615.05
2018-09-18T19:27:07.262Z,98619.34
2018-09-18T19:29:36.226Z,98623.00
2018-09-18T19:32:04.582Z,98617.78
2018-09-18T19:34:32.994Z,98626.55
2018-09-18T19:37:03.636Z,98634.34
2018-09-18T19:39:33.257Z,98636.13
2018-09-18T19:42:01.602Z,98647.60
2018-09-18T19:44:30.079Z,98645.41
2018-09-18T19:46:58.887Z,98642.17
2018-09-18T19:49:27.354Z,98646.27
2018-09-18T19:51:55.883Z,98651.59
2018-09-18T19:54:24.381Z,98651.56
2018-09-18T19:56:53.479Z,98661.19
2018-09-18T19:59:22.057Z,98653.52
2018-09-18T20:01:50.464Z,98641.98
2018-09-18T20:04:18.925Z,98647.30
2018-09-18T20:06:47.991Z,98653.84
2018-09-18T20:09:17.403Z,98655.30
2018-09-18T20:11:45.948Z,98651.53
2018-09-18T20:14:14.448Z,98648.33
2018-09-18T20:16:42.903Z,98651.73
2018-09-18T20:19:11.534Z,98649.59
2018-09-18T20:21:40.304Z,98648.05
2018-09-18T20:24:09.416Z,98642.67
2018-09-18T20:26:38.834Z,98641.31
2018-09-18T20:29:07.890Z,98640.88
2018-09-18T20:31:36.497Z,98650.17
2018-09-18T20:34:05.268Z,98648.59
2018-09-18T20:36:34.476Z,98650.57
2018-09-18T20:39:03.992Z,98655.16
2018-09-18T20:41:34.165Z,98660.66
2018-09-18T20:44:03.213Z,98660.33
2018-09-18T20:46:32.770Z,98654.88
2018-09-18T20:49:01.483Z,98659.77
2018-09-18T20:51:30.413Z,98667.39
2018-09-18T20:53:59.426Z,98661.30
2018-09-18T20:56:27.842Z,98666.86
2018-09-18T20:58:56.298Z,98659.66
2018-09-18T21:01:24.703Z,98668.53
2018-09-18T21:03:53.442Z,98673.64
2018-09-18T21:06:21.975Z,98678.12
2018-09-18T21:08:51.268Z,98683.23
2018-09-18T21:11:19.713Z,98671.91
2018-09-18T21:13:48.131Z,98675.97
2018-09-18T21:16:16.471Z,98676.89
2018-09-18T21:18:44.944Z,98682.13
2018-09-18T21:21:13.374Z,98681.75
2018-09-18T21:23:41.714Z,98677.19
2018-09-18T21:26:19.719Z,98684.41
2018-09-18T21:28:48.557Z,98696.22
2018-09-18T21:31:17.425Z,98692.84
2018-09-18T21:33:45.925Z,98694.50
2018-09-18T21:38:54.272Z,98697.53
2018-09-18T21:41:22.583Z,98700.38
2018-09-18T21:43:50.850Z,98703.97
2018-09-18T21:46:19.339Z,98703.91
2018-09-18T21:48:47.727Z,98710.88
2018-09-18T21:51:16.109Z,98716.12
2018-09-18T21:53:44.410Z,98715.63
2018-09-18T21:56:12.799Z,98720.75
2018-09-18T21:58:41.194Z,98723.16
2018-09-18T22:01:09.700Z,98728.63
2018-09-18T22:03:38.127Z,98726.57
2018-09-18T22:06:06.461Z,98738.05
2018-09-18T22:08:36.626Z,98737.25
2018-09-18T22:11:05.023Z,98742.26
2018-09-18T22:13:33.434Z,98744.57
2018-09-18T22:16:01.791Z,98748.10
2018-09-18T22:18:30.095Z,98747.69
2018-09-18T22:20:58.429Z,98756.73
2018-09-18T22:23:26.745Z,98757.83
2018-09-18T22:25:55.089Z,98758.45
2018-09-18T22:28:23.395Z,98764.66
2018-09-18T22:30:51.723Z,98765.62
2018-09-18T22:33:20.129Z,98768.25
2018-09-18T22:35:48.437Z,98766.79
2018-09-18T22:38:16.816Z,98770.55
2018-09-18T22:40:45.204Z,98770.14
2018-09-18T22:43:13.709Z,98769.51
2018-09-18T22:45:41.960Z,98779.05
2018-09-18T22:48:10.313Z,98781.36
2018-09-18T22:50:38.614Z,98783.53
2018-09-18T22:53:06.927Z,98785.02
2018-09-18T22:55:35.246Z,98789.71
2018-09-18T23:00:31.066Z,98794.01
2018-09-18T23:02:59.387Z,98800.36
2018-09-18T23:05:27.697Z,98799.16
2018-09-18T23:07:56.094Z,98799.69
2018-09-18T23:10:24.393Z,98802.22
2018-09-18T23:12:52.791Z,98799.25
2018-09-18T23:15:21.109Z,98801.49
2018-09-18T23:17:49.423Z,98803.94
2018-09-18T23:20:17.909Z,98808.41
2018-09-18T23:22:46.218Z,98800.84
2018-09-18T23:25:14.694Z,98809.77
2018-09-18T23:27:43.102Z,98798.77
2018-09-18T23:30:11.510Z,98798.27
2018-09-18T23:32:39.875Z,98801.48
2018-09-18T23:35:08.172Z,98799.73
2018-09-18T23:37:36.532Z,98802.13
2018-09-18T23:40:04.905Z,98800.05
2018-09-18T23:42:33.222Z,98802.83
2018-09-18T23:45:01.489Z,98803.80
2018-09-18T23:47:29.875Z,98810.84
2018-09-18T23:49:58.219Z,98810.64
2018-09-18T23:52:26.598Z,98813.11
2018-09-18T23:54:55.200Z,98809.56
2018-09-18T23:57:23.554Z,98810.64
2018-09-18T23:59:51.965Z,98814.94
